Galesburg, IL

8:53 PM CDT on May 28, 2017 (GMT -0500)
Galesburg Municipal

Weather History for KGBG - January, 2013

Change the Weather History Date:

Friday, January 18, 2013

  Actual Average Record
Temperature  
Mean Temperature 32 °F -  
Max Temperature 47 °F 28 °F 57 °F (1951)
Min Temperature 17 °F 12 °F -18 °F (1977)
Degree Days  
Heating Degree Days 33    
Moisture  
Dew Point 26 °F    
Average Humidity 71    
Maximum Humidity 93    
Minimum Humidity 53    
Precipitation  
Precipitation 0.00 in - - ()
Sea Level Pressure  
Sea Level Pressure 30.17 in    
Wind  
Wind Speed 10 mph (South)    
Max Wind Speed 26 mph    
Max Gust Speed 36 mph    
Visibility 10 miles    
Events      
Averages and records for this station are not official NWS values.
T = Trace of Precipitation, MM = Missing Value Source: NWS Daily Summary

Daily Weather History Graph

Daily Weather History Graph

Search for Another Location

Airport or City:

Trip Planner

Search our weather history database for the weather conditions in past years. The results will help you decide how hot, cold, wet, or windy it might be!

Date:

Astronomy

Jan. 18, 2013 Rise Set
Actual Time 7:22 AM CST 5:02 PM CST
Civil Twilight 6:52 AM CST 5:32 PM CST
Nautical Twilight 6:18 AM CST 6:05 PM CST
Astronomical Twilight 5:46 AM CST 6:38 PM CST
Moon 10:57 AM CST (1/18) No Moon Set
Length of Visible Light 10h 39m
Length of Day
9h 39m
Waxing Crescent, 47% of the Moon is Illuminated
Jan 18
Waxing Crescent
Jan 18
First Quarter
Jan 26
Full
Feb 3
Last Quarter
Feb 10
New

Hourly Weather History & Observations

Time (CST) Temp. Windchill Dew Point Humidity Pressure Visibility Wind Dir Wind Speed Gust Speed Precip Events Conditions
12:15 AM 17.4 °F - 15.1 °F 91% 30.42 in 10.0 mi Calm Calm - N/A   Clear
12:35 AM 17.1 °F 10.0 °F 15.3 °F 93% 30.41 in 10.0 mi South 4.6 mph - N/A   Mostly Cloudy
12:55 AM 19.9 °F 14.9 °F 17.2 °F 89% 30.41 in 10.0 mi South 3.5 mph - N/A   Overcast
1:15 AM 21.2 °F 14.9 °F 18.0 °F 87% 30.41 in 10.0 mi South 4.6 mph - N/A   Overcast
1:35 AM 22.6 °F 15.3 °F 18.5 °F 84% 30.42 in 10.0 mi South 5.8 mph - N/A   Overcast
1:55 AM 23.4 °F - 18.7 °F 82% 30.41 in 10.0 mi Calm Calm - N/A   Overcast
2:15 AM 23.5 °F 19.1 °F 19.0 °F 83% 30.41 in 10.0 mi South 3.5 mph - N/A   Overcast
2:35 AM 23.9 °F 18.0 °F 18.7 °F 80% 30.41 in 10.0 mi South 4.6 mph - N/A   Scattered Clouds
2:55 AM 23.7 °F 17.8 °F 19.0 °F 82% 30.41 in 10.0 mi South 4.6 mph - N/A   Clear
3:15 AM 23.9 °F 18.0 °F 18.7 °F 80% 30.39 in 10.0 mi SSE 4.6 mph - N/A   Clear
3:35 AM 23.9 °F 18.0 °F 19.2 °F 82% 30.39 in 10.0 mi South 4.6 mph - N/A   Clear
3:55 AM 24.8 °F 16.9 °F 19.2 °F 79% 30.39 in 10.0 mi South 6.9 mph - N/A   Clear
4:15 AM 23.7 °F 17.8 °F 18.5 °F 80% 30.38 in 10.0 mi South 4.6 mph - N/A   Clear
4:35 AM 23.0 °F 17.0 °F 18.3 °F 82% 30.37 in 10.0 mi South 4.6 mph - N/A   Clear
4:55 AM 22.8 °F 16.7 °F 18.3 °F 83% 30.37 in 10.0 mi South 4.6 mph - N/A   Scattered Clouds
5:15 AM 23.7 °F 14.7 °F 18.7 °F 81% 30.36 in 10.0 mi SSE 8.1 mph - N/A   Mostly Cloudy
5:35 AM 23.0 °F 14.7 °F 18.5 °F 83% 30.35 in 10.0 mi SSE 6.9 mph - N/A   Scattered Clouds
5:55 AM 22.1 °F 14.7 °F 18.1 °F 85% 30.35 in 10.0 mi South 5.8 mph - N/A   Clear
6:15 AM 22.8 °F 14.5 °F 18.5 °F 83% 30.35 in 10.0 mi South 6.9 mph - N/A   Clear
6:35 AM 23.4 °F 15.2 °F 19.0 °F 84% 30.34 in 10.0 mi South 6.9 mph - N/A   Clear
6:55 AM 24.4 °F 14.2 °F 19.4 °F 81% 30.32 in 10.0 mi South 10.4 mph - N/A   Clear
7:15 AM 25.5 °F 13.8 °F 20.3 °F 81% 30.32 in 10.0 mi South 13.8 mph - N/A   Clear
7:35 AM 26.6 °F 14.7 °F 20.5 °F 78% 30.31 in 10.0 mi South 15.0 mph - N/A   Clear
7:55 AM 27.9 °F 15.5 °F 21.0 °F 75% 30.30 in 10.0 mi South 17.3 mph 21.9 mph N/A   Clear
8:15 AM 29.1 °F 17.9 °F 21.6 °F 73% 30.30 in 10.0 mi South 15.0 mph 23.0 mph N/A   Clear
8:35 AM 30.2 °F 17.8 °F 22.1 °F 72% 30.30 in 10.0 mi South 19.6 mph 26.5 mph N/A   Clear
8:55 AM 30.9 °F 18.7 °F 22.3 °F 70% 30.29 in 10.0 mi South 19.6 mph 27.6 mph N/A   Clear
9:15 AM 31.3 °F 18.5 °F 23.0 °F 71% 30.29 in 10.0 mi South 21.9 mph 29.9 mph N/A   Clear
9:35 AM 32.0 °F 19.5 °F 23.0 °F 69% 30.28 in 10.0 mi South 21.9 mph 27.6 mph N/A   Clear
9:55 AM 33.8 °F 22.2 °F 24.8 °F 70% 30.28 in 10.0 mi South 20.7 mph 28.8 mph N/A   Clear
10:15 AM 33.8 °F 22.2 °F 25.3 °F 71% 30.26 in 10.0 mi South 20.7 mph 29.9 mph N/A   Clear
10:35 AM 34.9 °F 23.9 °F 25.9 °F 70% 30.25 in 10.0 mi South 19.6 mph 27.6 mph N/A   Clear
10:55 AM 34.7 °F 24.0 °F 26.2 °F 71% 30.24 in 10.0 mi South 18.4 mph 25.3 mph N/A   Clear
11:15 AM 36.5 °F 27.4 °F 27.0 °F 68% 30.22 in 10.0 mi South 15.0 mph 21.9 mph N/A   Clear
11:35 AM 37.4 °F 27.2 °F 27.5 °F 67% 30.19 in 10.0 mi South 19.6 mph 25.3 mph N/A   Clear
11:55 AM 38.7 °F 29.1 °F 28.4 °F 67% 30.17 in 10.0 mi South 18.4 mph 26.5 mph N/A   Clear
12:15 PM 39.6 °F 30.6 °F 29.5 °F 67% 30.15 in 10.0 mi South 17.3 mph 24.2 mph N/A   Clear
12:35 PM 40.6 °F 32.3 °F 30.0 °F 66% 30.13 in 10.0 mi South 16.1 mph 24.2 mph N/A   Clear
12:55 PM 41.9 °F 33.1 °F 30.9 °F 65% 30.10 in 10.0 mi South 19.6 mph 25.3 mph N/A   Clear
1:15 PM 42.8 °F 34.8 °F 31.6 °F 65% 30.08 in 10.0 mi South 17.3 mph 24.2 mph N/A   Clear
1:35 PM 44.1 °F 36.2 °F 32.0 °F 63% 30.06 in 10.0 mi South 18.4 mph 25.3 mph N/A   Clear
1:55 PM 44.8 °F 37.7 °F 32.4 °F 62% 30.04 in 10.0 mi South 16.1 mph 21.9 mph N/A   Clear
2:15 PM 46.0 °F 39.6 °F 32.5 °F 59% 30.03 in 10.0 mi South 15.0 mph 23.0 mph N/A   Clear
2:35 PM 46.6 °F - 32.2 °F 57% 30.02 in 10.0 mi South 18.4 mph 25.3 mph N/A   Clear
2:55 PM 46.9 °F - 31.3 °F 55% 30.01 in 10.0 mi South 23.0 mph 29.9 mph N/A   Clear
3:15 PM 47.1 °F - 30.7 °F 53% 30.00 in 10.0 mi South 26.5 mph 35.7 mph N/A   Clear
3:35 PM 46.2 °F 38.3 °F 30.7 °F 55% 29.99 in 10.0 mi SSW 21.9 mph 29.9 mph N/A   Clear
3:55 PM 45.0 °F 36.4 °F 30.2 °F 56% 29.99 in 10.0 mi South 23.0 mph 29.9 mph N/A   Clear
4:15 PM 45.3 °F 37.3 °F 30.7 °F 57% 29.98 in 10.0 mi SSW 20.7 mph 27.6 mph N/A   Clear
4:35 PM 44.8 °F 36.9 °F 30.4 °F 57% 29.98 in 10.0 mi South 19.6 mph 27.6 mph N/A   Clear
4:55 PM 43.9 °F 36.8 °F 30.2 °F 59% 29.98 in 10.0 mi SSW 15.0 mph - N/A   Clear
5:15 PM 42.6 °F 35.9 °F 30.2 °F 61% 29.98 in 10.0 mi South 12.7 mph - N/A   Clear
5:35 PM 42.1 °F 36.6 °F 29.8 °F 62% 29.99 in 10.0 mi SSW 9.2 mph - N/A   Clear
5:55 PM 41.2 °F 35.0 °F 30.0 °F 65% 29.99 in 10.0 mi SSW 10.4 mph - N/A   Clear
6:15 PM 40.6 °F 34.3 °F 30.0 °F 66% 30.00 in 10.0 mi South 10.4 mph - N/A   Clear
6:35 PM 40.3 °F 34.4 °F 30.0 °F 67% 30.00 in 10.0 mi SSW 9.2 mph - N/A   Clear
6:55 PM 40.6 °F 33.4 °F 30.2 °F 66% 30.00 in 10.0 mi SSW 12.7 mph - N/A   Clear
7:15 PM 40.6 °F 33.4 °F 30.2 °F 66% 30.00 in 10.0 mi SSW 12.7 mph - N/A   Clear
7:35 PM 41.0 °F 33.9 °F 30.2 °F 65% 30.00 in 10.0 mi SSW 12.7 mph - N/A   Clear
7:55 PM 41.0 °F 33.1 °F 30.2 °F 65% 30.00 in 10.0 mi SSW 15.0 mph - N/A   Clear
8:15 PM 41.0 °F 33.1 °F 30.2 °F 65% 29.99 in 10.0 mi SSW 15.0 mph - N/A   Clear
8:35 PM 40.5 °F 32.5 °F 30.2 °F 67% 29.99 in 10.0 mi SSW 15.0 mph - N/A   Clear
8:55 PM 40.3 °F 31.9 °F 30.0 °F 67% 29.98 in 10.0 mi SSW 16.1 mph - N/A   Clear
9:15 PM 41.0 °F 32.8 °F 30.2 °F 65% 29.98 in 10.0 mi SSW 16.1 mph - N/A   Clear
9:35 PM 40.5 °F 32.5 °F 29.8 °F 66% 29.98 in 10.0 mi SSW 15.0 mph - N/A   Clear
9:55 PM 40.1 °F 31.3 °F 29.8 °F 67% 29.97 in 10.0 mi SSW 17.3 mph - N/A   Clear
10:15 PM 40.1 °F 32.0 °F 29.7 °F 66% 29.97 in 10.0 mi SSW 15.0 mph - N/A   Clear
10:35 PM 39.2 °F 30.5 °F 29.8 °F 69% 29.97 in 10.0 mi SSW 16.1 mph - N/A   Clear
10:55 PM 38.8 °F 30.4 °F 29.8 °F 70% 29.96 in 10.0 mi SSW 15.0 mph - N/A   Clear
11:15 PM 39.0 °F 31.0 °F 29.8 °F 70% 29.96 in 10.0 mi SSW 13.8 mph - N/A   Clear
11:35 PM 39.6 °F 31.0 °F 29.8 °F 68% 29.96 in 10.0 mi SSW 16.1 mph - N/A   Clear
11:55 PM 39.4 °F 30.7 °F 29.8 °F 69% 29.96 in 10.0 mi SSW 16.1 mph - N/A   Clear